sensor_id;sensor_type;location;lat;lon;timestamp;P1;durP1;ratioP1;P2;durP2;ratioP2
581;SDS011;277;50.074;8.436;2023-03-08T00:00:19;0.90;;;0.65;;
581;SDS011;277;50.074;8.436;2023-03-08T00:02:47;0.60;;;0.40;;
581;SDS011;277;50.074;8.436;2023-03-08T00:05:15;0.70;;;0.60;;
581;SDS011;277;50.074;8.436;2023-03-08T00:07:44;1.30;;;0.75;;
581;SDS011;277;50.074;8.436;2023-03-08T00:10:12;0.60;;;0.50;;
581;SDS011;277;50.074;8.436;2023-03-08T00:12:40;0.82;;;0.60;;
581;SDS011;277;50.074;8.436;2023-03-08T00:15:08;1.20;;;0.52;;
581;SDS011;277;50.074;8.436;2023-03-08T00:17:36;0.60;;;0.50;;
581;SDS011;277;50.074;8.436;2023-03-08T00:20:06;0.63;;;0.57;;
581;SDS011;277;50.074;8.436;2023-03-08T00:22:35;0.60;;;0.40;;
581;SDS011;277;50.074;8.436;2023-03-08T00:25:05;0.57;;;0.40;;
581;SDS011;277;50.074;8.436;2023-03-08T00:27:35;0.70;;;0.60;;
581;SDS011;277;50.074;8.436;2023-03-08T00:30:04;0.90;;;0.60;;
581;SDS011;277;50.074;8.436;2023-03-08T00:32:32;0.93;;;0.82;;
581;SDS011;277;50.074;8.436;2023-03-08T00:35:00;0.88;;;0.80;;
581;SDS011;277;50.074;8.436;2023-03-08T00:37:28;0.63;;;0.60;;
581;SDS011;277;50.074;8.436;2023-03-08T00:39:56;0.60;;;0.50;;
581;SDS011;277;50.074;8.436;2023-03-08T00:42:25;0.50;;;0.40;;
581;SDS011;277;50.074;8.436;2023-03-08T00:44:53;0.63;;;0.57;;
581;SDS011;277;50.074;8.436;2023-03-08T00:47:21;0.50;;;0.30;;
581;SDS011;277;50.074;8.436;2023-03-08T00:49:49;1.50;;;0.80;;
581;SDS011;277;50.074;8.436;2023-03-08T00:52:17;0.50;;;0.40;;
581;SDS011;277;50.074;8.436;2023-03-08T00:54:44;0.50;;;0.40;;
581;SDS011;277;50.074;8.436;2023-03-08T00:57:12;0.70;;;0.50;;
581;SDS011;277;50.074;8.436;2023-03-08T00:59:42;0.68;;;0.68;;
581;SDS011;277;50.074;8.436;2023-03-08T01:02:10;0.60;;;0.50;;
581;SDS011;277;50.074;8.436;2023-03-08T01:04:38;0.90;;;0.50;;
581;SDS011;277;50.074;8.436;2023-03-08T01:07:06;0.60;;;0.50;;
581;SDS011;277;50.074;8.436;2023-03-08T01:09:34;0.60;;;0.40;;
581;SDS011;277;50.074;8.436;2023-03-08T01:12:02;0.50;;;0.40;;
581;SDS011;277;50.074;8.436;2023-03-08T01:14:30;0.60;;;0.40;;
581;SDS011;277;50.074;8.436;2023-03-08T01:16:59;0.80;;;0.52;;
581;SDS011;277;50.074;8.436;2023-03-08T01:19:27;0.60;;;0.43;;
581;SDS011;277;50.074;8.436;2023-03-08T01:21:55;0.60;;;0.40;;
581;SDS011;277;50.074;8.436;2023-03-08T01:24:23;0.60;;;0.40;;
581;SDS011;277;50.074;8.436;2023-03-08T01:26:51;1.25;;;0.93;;
581;SDS011;277;50.074;8.436;2023-03-08T01:29:20;1.02;;;0.45;;
581;SDS011;277;50.074;8.436;2023-03-08T01:31:48;0.70;;;0.50;;
581;SDS011;277;50.074;8.436;2023-03-08T01:34:17;1.13;;;1.13;;
581;SDS011;277;50.074;8.436;2023-03-08T01:36:46;0.60;;;0.60;;
581;SDS011;277;50.074;8.436;2023-03-08T01:39:13;0.65;;;0.45;;
581;SDS011;277;50.074;8.436;2023-03-08T01:41:41;0.80;;;0.60;;
581;SDS011;277;50.074;8.436;2023-03-08T01:44:12;0.65;;;0.50;;
581;SDS011;277;50.074;8.436;2023-03-08T01:46:41;0.60;;;0.50;;
581;SDS011;277;50.074;8.436;2023-03-08T01:49:11;0.80;;;0.80;;
581;SDS011;277;50.074;8.436;2023-03-08T01:51:43;1.25;;;0.50;;
581;SDS011;277;50.074;8.436;2023-03-08T01:54:16;1.10;;;0.70;;
581;SDS011;277;50.074;8.436;2023-03-08T01:56:49;0.73;;;0.73;;
581;SDS011;277;50.074;8.436;2023-03-08T01:59:21;0.80;;;0.60;;
581;SDS011;277;50.074;8.436;2023-03-08T02:01:49;1.00;;;0.70;;
581;SDS011;277;50.074;8.436;2023-03-08T02:04:17;0.70;;;0.60;;
581;SDS011;277;50.074;8.436;2023-03-08T02:06:46;1.58;;;0.80;;
581;SDS011;277;50.074;8.436;2023-03-08T02:09:14;1.27;;;1.17;;
581;SDS011;277;50.074;8.436;2023-03-08T02:11:42;0.68;;;0.47;;
581;SDS011;277;50.074;8.436;2023-03-08T02:14:10;0.70;;;0.60;;
581;SDS011;277;50.074;8.436;2023-03-08T02:16:38;0.98;;;0.93;;
581;SDS011;277;50.074;8.436;2023-03-08T02:19:07;0.65;;;0.57;;
581;SDS011;277;50.074;8.436;2023-03-08T02:21:40;1.23;;;0.90;;
581;SDS011;277;50.074;8.436;2023-03-08T02:24:17;1.00;;;0.77;;
581;SDS011;277;50.074;8.436;2023-03-08T02:26:46;0.80;;;0.80;;
581;SDS011;277;50.074;8.436;2023-03-08T02:29:16;0.90;;;0.80;;
581;SDS011;277;50.074;8.436;2023-03-08T02:31:44;0.98;;;0.85;;
581;SDS011;277;50.074;8.436;2023-03-08T02:34:12;0.80;;;0.80;;
581;SDS011;277;50.074;8.436;2023-03-08T02:36:39;1.23;;;1.00;;
581;SDS011;277;50.074;8.436;2023-03-08T02:39:07;0.95;;;0.80;;
581;SDS011;277;50.074;8.436;2023-03-08T02:41:37;1.00;;;0.90;;
581;SDS011;277;50.074;8.436;2023-03-08T02:44:04;1.77;;;1.10;;
581;SDS011;277;50.074;8.436;2023-03-08T02:46:33;0.75;;;0.65;;
581;SDS011;277;50.074;8.436;2023-03-08T02:49:01;0.60;;;0.50;;
581;SDS011;277;50.074;8.436;2023-03-08T02:51:29;1.23;;;1.00;;
581;SDS011;277;50.074;8.436;2023-03-08T02:53:57;1.92;;;0.80;;
581;SDS011;277;50.074;8.436;2023-03-08T02:56:25;1.95;;;1.15;;
581;SDS011;277;50.074;8.436;2023-03-08T02:58:54;1.73;;;0.95;;
581;SDS011;277;50.074;8.436;2023-03-08T03:01:22;1.23;;;0.60;;
581;SDS011;277;50.074;8.436;2023-03-08T03:03:52;1.02;;;0.93;;
581;SDS011;277;50.074;8.436;2023-03-08T03:06:20;1.10;;;1.00;;
581;SDS011;277;50.074;8.436;2023-03-08T03:08:48;1.55;;;0.88;;
581;SDS011;277;50.074;8.436;2023-03-08T03:11:16;0.95;;;0.65;;
581;SDS011;277;50.074;8.436;2023-03-08T03:13:45;0.82;;;0.63;;
581;SDS011;277;50.074;8.436;2023-03-08T03:16:15;1.55;;;1.45;;
581;SDS011;277;50.074;8.436;2023-03-08T03:18:43;1.38;;;0.75;;
581;SDS011;277;50.074;8.436;2023-03-08T03:21:11;0.82;;;0.82;;
581;SDS011;277;50.074;8.436;2023-03-08T03:23:40;1.33;;;1.23;;
581;SDS011;277;50.074;8.436;2023-03-08T03:26:09;0.80;;;0.60;;
581;SDS011;277;50.074;8.436;2023-03-08T03:28:38;0.85;;;0.68;;
581;SDS011;277;50.074;8.436;2023-03-08T03:31:06;2.28;;;1.20;;
581;SDS011;277;50.074;8.436;2023-03-08T03:33:37;1.60;;;0.98;;
581;SDS011;277;50.074;8.436;2023-03-08T03:36:06;1.02;;;0.82;;
581;SDS011;277;50.074;8.436;2023-03-08T03:38:35;1.20;;;1.10;;
581;SDS011;277;50.074;8.436;2023-03-08T03:41:03;1.27;;;0.90;;
581;SDS011;277;50.074;8.436;2023-03-08T03:43:33;1.10;;;1.00;;
581;SDS011;277;50.074;8.436;2023-03-08T03:46:02;1.20;;;1.00;;
581;SDS011;277;50.074;8.436;2023-03-08T03:48:32;1.20;;;1.02;;
581;SDS011;277;50.074;8.436;2023-03-08T03:51:03;1.13;;;0.85;;
581;SDS011;277;50.074;8.436;2023-03-08T03:53:32;1.27;;;1.17;;
581;SDS011;277;50.074;8.436;2023-03-08T03:56:02;1.13;;;0.85;;
581;SDS011;277;50.074;8.436;2023-03-08T03:58:31;0.93;;;0.70;;
581;SDS011;277;50.074;8.436;2023-03-08T04:00:59;0.80;;;0.60;;
581;SDS011;277;50.074;8.436;2023-03-08T04:03:27;0.70;;;0.70;;
581;SDS011;277;50.074;8.436;2023-03-08T04:06:03;1.13;;;0.75;;
581;SDS011;277;50.074;8.436;2023-03-08T04:08:33;2.70;;;1.13;;
581;SDS011;277;50.074;8.436;2023-03-08T04:11:07;0.85;;;0.82;;
581;SDS011;277;50.074;8.436;2023-03-08T04:13:35;1.10;;;1.00;;
581;SDS011;277;50.074;8.436;2023-03-08T04:16:10;1.27;;;0.73;;
581;SDS011;277;50.074;8.436;2023-03-08T04:18:38;1.17;;;1.08;;
581;SDS011;277;50.074;8.436;2023-03-08T04:21:07;1.23;;;1.00;;
581;SDS011;277;50.074;8.436;2023-03-08T04:23:38;1.42;;;1.33;;
581;SDS011;277;50.074;8.436;2023-03-08T04:26:06;1.50;;;1.02;;
581;SDS011;277;50.074;8.436;2023-03-08T04:28:34;0.70;;;0.60;;
581;SDS011;277;50.074;8.436;2023-03-08T04:31:10;3.10;;;1.95;;
581;SDS011;277;50.074;8.436;2023-03-08T04:33:38;1.30;;;0.95;;
581;SDS011;277;50.074;8.436;2023-03-08T04:36:08;1.60;;;0.98;;
581;SDS011;277;50.074;8.436;2023-03-08T04:38:36;1.30;;;0.80;;
581;SDS011;277;50.074;8.436;2023-03-08T04:41:04;1.60;;;1.25;;
581;SDS011;277;50.074;8.436;2023-03-08T04:43:37;1.85;;;1.10;;
581;SDS011;277;50.074;8.436;2023-03-08T04:46:06;0.90;;;0.75;;
581;SDS011;277;50.074;8.436;2023-03-08T04:48:34;1.90;;;0.93;;
581;SDS011;277;50.074;8.436;2023-03-08T04:51:03;1.00;;;0.95;;
581;SDS011;277;50.074;8.436;2023-03-08T04:53:34;2.00;;;0.80;;
581;SDS011;277;50.074;8.436;2023-03-08T04:56:04;1.52;;;1.35;;
581;SDS011;277;50.074;8.436;2023-03-08T04:58:33;1.60;;;1.48;;
581;SDS011;277;50.074;8.436;2023-03-08T05:01:07;0.70;;;0.70;;
581;SDS011;277;50.074;8.436;2023-03-08T05:03:36;1.13;;;0.93;;
581;SDS011;277;50.074;8.436;2023-03-08T05:06:04;1.42;;;0.93;;
581;SDS011;277;50.074;8.436;2023-03-08T05:08:33;1.00;;;0.68;;
581;SDS011;277;50.074;8.436;2023-03-08T05:11:01;1.35;;;1.15;;
581;SDS011;277;50.074;8.436;2023-03-08T05:13:31;2.42;;;1.25;;
581;SDS011;277;50.074;8.436;2023-03-08T05:16:00;4.75;;;2.10;;
581;SDS011;277;50.074;8.436;2023-03-08T05:18:28;2.20;;;1.88;;
581;SDS011;277;50.074;8.436;2023-03-08T05:20:57;1.83;;;1.27;;
581;SDS011;277;50.074;8.436;2023-03-08T05:23:26;1.58;;;1.48;;
581;SDS011;277;50.074;8.436;2023-03-08T05:25:57;3.10;;;1.83;;
581;SDS011;277;50.074;8.436;2023-03-08T05:28:26;2.25;;;1.95;;
581;SDS011;277;50.074;8.436;2023-03-08T05:31:01;2.35;;;2.15;;
581;SDS011;277;50.074;8.436;2023-03-08T05:33:29;3.83;;;2.15;;
581;SDS011;277;50.074;8.436;2023-03-08T05:35:58;4.57;;;2.88;;
581;SDS011;277;50.074;8.436;2023-03-08T05:38:26;5.07;;;1.75;;
581;SDS011;277;50.074;8.436;2023-03-08T05:40:58;1.60;;;1.20;;
581;SDS011;277;50.074;8.436;2023-03-08T05:43:26;2.47;;;2.25;;
581;SDS011;277;50.074;8.436;2023-03-08T05:45:54;1.52;;;1.42;;
581;SDS011;277;50.074;8.436;2023-03-08T05:48:24;2.63;;;2.10;;
581;SDS011;277;50.074;8.436;2023-03-08T05:50:52;5.03;;;2.60;;
581;SDS011;277;50.074;8.436;2023-03-08T05:53:21;5.88;;;2.63;;
581;SDS011;277;50.074;8.436;2023-03-08T05:55:49;2.90;;;2.60;;
581;SDS011;277;50.074;8.436;2023-03-08T05:58:18;2.30;;;1.70;;
581;SDS011;277;50.074;8.436;2023-03-08T06:00:46;3.15;;;2.45;;
581;SDS011;277;50.074;8.436;2023-03-08T06:03:13;1.90;;;1.50;;
581;SDS011;277;50.074;8.436;2023-03-08T06:05:41;2.72;;;2.53;;
581;SDS011;277;50.074;8.436;2023-03-08T06:08:09;3.30;;;2.17;;
581;SDS011;277;50.074;8.436;2023-03-08T06:10:37;4.47;;;3.58;;
581;SDS011;277;50.074;8.436;2023-03-08T06:13:05;2.70;;;2.10;;
581;SDS011;277;50.074;8.436;2023-03-08T06:15:34;2.45;;;2.15;;
581;SDS011;277;50.074;8.436;2023-03-08T06:18:02;3.25;;;2.80;;
581;SDS011;277;50.074;8.436;2023-03-08T06:20:30;3.45;;;2.28;;
581;SDS011;277;50.074;8.436;2023-03-08T06:22:58;5.05;;;2.53;;
581;SDS011;277;50.074;8.436;2023-03-08T06:25:25;4.28;;;3.00;;
581;SDS011;277;50.074;8.436;2023-03-08T06:27:53;2.80;;;2.50;;
581;SDS011;277;50.074;8.436;2023-03-08T06:30:21;3.35;;;2.45;;
581;SDS011;277;50.074;8.436;2023-03-08T06:32:50;5.70;;;2.20;;
581;SDS011;277;50.074;8.436;2023-03-08T06:35:18;2.88;;;2.50;;
581;SDS011;277;50.074;8.436;2023-03-08T06:37:46;3.00;;;2.78;;
581;SDS011;277;50.074;8.436;2023-03-08T06:40:14;3.03;;;2.17;;
581;SDS011;277;50.074;8.436;2023-03-08T06:42:43;3.97;;;1.92;;
581;SDS011;277;50.074;8.436;2023-03-08T06:45:11;2.05;;;1.85;;
581;SDS011;277;50.074;8.436;2023-03-08T06:47:39;2.58;;;2.13;;
581;SDS011;277;50.074;8.436;2023-03-08T06:50:09;3.67;;;2.72;;
581;SDS011;277;50.074;8.436;2023-03-08T06:52:37;2.47;;;2.28;;
581;SDS011;277;50.074;8.436;2023-03-08T06:55:05;2.75;;;2.42;;
581;SDS011;277;50.074;8.436;2023-03-08T06:57:34;4.35;;;2.60;;
581;SDS011;277;50.074;8.436;2023-03-08T07:00:02;2.47;;;2.28;;
581;SDS011;277;50.074;8.436;2023-03-08T07:02:30;1.98;;;1.75;;
581;SDS011;277;50.074;8.436;2023-03-08T07:04:58;2.55;;;2.35;;
581;SDS011;277;50.074;8.436;2023-03-08T07:07:27;4.00;;;2.50;;
581;SDS011;277;50.074;8.436;2023-03-08T07:09:55;3.38;;;2.38;;
581;SDS011;277;50.074;8.436;2023-03-08T07:12:24;4.57;;;2.67;;
581;SDS011;277;50.074;8.436;2023-03-08T07:14:51;2.38;;;2.17;;
581;SDS011;277;50.074;8.436;2023-03-08T07:17:19;3.22;;;2.38;;
581;SDS011;277;50.074;8.436;2023-03-08T07:19:47;2.63;;;1.92;;
581;SDS011;277;50.074;8.436;2023-03-08T07:22:15;4.05;;;3.70;;
581;SDS011;277;50.074;8.436;2023-03-08T07:24:46;2.83;;;2.50;;
581;SDS011;277;50.074;8.436;2023-03-08T07:27:15;4.20;;;2.72;;
581;SDS011;277;50.074;8.436;2023-03-08T07:29:42;2.25;;;2.05;;
581;SDS011;277;50.074;8.436;2023-03-08T07:32:11;2.58;;;1.92;;
581;SDS011;277;50.074;8.436;2023-03-08T07:34:39;3.53;;;2.78;;
581;SDS011;277;50.074;8.436;2023-03-08T07:37:10;2.80;;;2.10;;
581;SDS011;277;50.074;8.436;2023-03-08T07:39:38;3.35;;;2.58;;
581;SDS011;277;50.074;8.436;2023-03-08T07:42:07;1.45;;;1.35;;
581;SDS011;277;50.074;8.436;2023-03-08T07:44:36;2.55;;;2.17;;
581;SDS011;277;50.074;8.436;2023-03-08T07:47:04;3.22;;;2.92;;
581;SDS011;277;50.074;8.436;2023-03-08T07:49:34;5.85;;;2.78;;
581;SDS011;277;50.074;8.436;2023-03-08T07:52:02;2.60;;;2.30;;
581;SDS011;277;50.074;8.436;2023-03-08T07:54:30;3.63;;;2.45;;
581;SDS011;277;50.074;8.436;2023-03-08T07:56:58;5.50;;;2.63;;
581;SDS011;277;50.074;8.436;2023-03-08T07:59:27;4.90;;;2.88;;
581;SDS011;277;50.074;8.436;2023-03-08T08:01:56;3.47;;;2.38;;
581;SDS011;277;50.074;8.436;2023-03-08T08:04:24;5.22;;;3.72;;
581;SDS011;277;50.074;8.436;2023-03-08T08:06:52;2.30;;;2.10;;
581;SDS011;277;50.074;8.436;2023-03-08T08:09:19;1.95;;;1.67;;
581;SDS011;277;50.074;8.436;2023-03-08T08:11:47;3.03;;;2.70;;
581;SDS011;277;50.074;8.436;2023-03-08T08:14:15;2.70;;;2.22;;
581;SDS011;277;50.074;8.436;2023-03-08T08:16:44;2.92;;;2.25;;
581;SDS011;277;50.074;8.436;2023-03-08T08:19:12;3.22;;;2.58;;
581;SDS011;277;50.074;8.436;2023-03-08T08:21:40;3.92;;;2.25;;
581;SDS011;277;50.074;8.436;2023-03-08T08:24:08;2.50;;;2.20;;
581;SDS011;277;50.074;8.436;2023-03-08T08:26:36;3.20;;;2.72;;
581;SDS011;277;50.074;8.436;2023-03-08T08:29:04;3.33;;;2.53;;
581;SDS011;277;50.074;8.436;2023-03-08T08:31:32;4.43;;;3.40;;
581;SDS011;277;50.074;8.436;2023-03-08T08:34:01;3.42;;;2.15;;
581;SDS011;277;50.074;8.436;2023-03-08T08:36:29;2.92;;;2.65;;
581;SDS011;277;50.074;8.436;2023-03-08T08:38:57;3.25;;;2.53;;
581;SDS011;277;50.074;8.436;2023-03-08T08:41:25;2.95;;;2.47;;
581;SDS011;277;50.074;8.436;2023-03-08T08:43:53;4.80;;;4.30;;
581;SDS011;277;50.074;8.436;2023-03-08T08:46:24;4.53;;;2.92;;
581;SDS011;277;50.074;8.436;2023-03-08T08:48:56;2.92;;;2.70;;
581;SDS011;277;50.074;8.436;2023-03-08T08:51:26;3.25;;;2.55;;
581;SDS011;277;50.074;8.436;2023-03-08T08:53:54;5.60;;;2.70;;
581;SDS011;277;50.074;8.436;2023-03-08T08:56:23;4.00;;;3.60;;
581;SDS011;277;50.074;8.436;2023-03-08T08:58:54;5.20;;;3.85;;
581;SDS011;277;50.074;8.436;2023-03-08T09:01:22;4.35;;;3.53;;
581;SDS011;277;50.074;8.436;2023-03-08T09:03:51;4.05;;;3.22;;
581;SDS011;277;50.074;8.436;2023-03-08T09:06:20;4.43;;;3.75;;
581;SDS011;277;50.074;8.436;2023-03-08T09:08:50;6.53;;;4.05;;
581;SDS011;277;50.074;8.436;2023-03-08T09:11:20;5.88;;;4.07;;
581;SDS011;277;50.074;8.436;2023-03-08T09:13:48;3.17;;;2.80;;
581;SDS011;277;50.074;8.436;2023-03-08T09:16:16;2.35;;;2.10;;
581;SDS011;277;50.074;8.436;2023-03-08T09:18:45;5.00;;;3.13;;
581;SDS011;277;50.074;8.436;2023-03-08T09:21:14;3.70;;;2.40;;
581;SDS011;277;50.074;8.436;2023-03-08T09:23:42;3.72;;;2.45;;
581;SDS011;277;50.074;8.436;2023-03-08T09:26:12;5.60;;;2.75;;
581;SDS011;277;50.074;8.436;2023-03-08T09:28:40;2.45;;;2.05;;
581;SDS011;277;50.074;8.436;2023-03-08T09:31:08;4.70;;;2.75;;
581;SDS011;277;50.074;8.436;2023-03-08T09:33:40;3.60;;;2.83;;
581;SDS011;277;50.074;8.436;2023-03-08T09:36:09;3.25;;;2.67;;
581;SDS011;277;50.074;8.436;2023-03-08T09:38:37;3.65;;;2.97;;
581;SDS011;277;50.074;8.436;2023-03-08T09:41:09;5.93;;;2.75;;
581;SDS011;277;50.074;8.436;2023-03-08T09:43:49;4.72;;;2.65;;
581;SDS011;277;50.074;8.436;2023-03-08T09:46:26;2.00;;;1.67;;
581;SDS011;277;50.074;8.436;2023-03-08T09:48:58;3.88;;;2.90;;
581;SDS011;277;50.074;8.436;2023-03-08T09:51:30;3.85;;;2.38;;
581;SDS011;277;50.074;8.436;2023-03-08T09:54:03;3.45;;;2.58;;
581;SDS011;277;50.074;8.436;2023-03-08T09:56:35;5.28;;;3.45;;
581;SDS011;277;50.074;8.436;2023-03-08T09:59:06;4.32;;;3.92;;
581;SDS011;277;50.074;8.436;2023-03-08T10:01:41;3.75;;;3.15;;
581;SDS011;277;50.074;8.436;2023-03-08T10:04:23;2.72;;;2.17;;
581;SDS011;277;50.074;8.436;2023-03-08T10:07:09;3.28;;;2.97;;
581;SDS011;277;50.074;8.436;2023-03-08T10:09:48;4.22;;;3.65;;
581;SDS011;277;50.074;8.436;2023-03-08T10:12:27;4.45;;;2.72;;
581;SDS011;277;50.074;8.436;2023-03-08T10:15:03;5.65;;;2.78;;
581;SDS011;277;50.074;8.436;2023-03-08T10:17:37;4.55;;;3.38;;
581;SDS011;277;50.074;8.436;2023-03-08T10:20:13;3.95;;;2.85;;
581;SDS011;277;50.074;8.436;2023-03-08T10:22:47;3.60;;;3.30;;
581;SDS011;277;50.074;8.436;2023-03-08T10:25:21;3.40;;;2.50;;
581;SDS011;277;50.074;8.436;2023-03-08T10:27:54;3.88;;;3.05;;
581;SDS011;277;50.074;8.436;2023-03-08T10:30:24;4.13;;;2.20;;
581;SDS011;277;50.074;8.436;2023-03-08T10:32:54;3.50;;;2.65;;
581;SDS011;277;50.074;8.436;2023-03-08T10:35:30;2.92;;;2.60;;
581;SDS011;277;50.074;8.436;2023-03-08T10:38:01;2.72;;;2.17;;
581;SDS011;277;50.074;8.436;2023-03-08T10:40:30;3.08;;;2.70;;
581;SDS011;277;50.074;8.436;2023-03-08T10:43:01;4.35;;;3.65;;
581;SDS011;277;50.074;8.436;2023-03-08T10:45:30;4.40;;;2.67;;
581;SDS011;277;50.074;8.436;2023-03-08T10:47:59;3.85;;;2.70;;
581;SDS011;277;50.074;8.436;2023-03-08T10:50:29;3.53;;;2.33;;
581;SDS011;277;50.074;8.436;2023-03-08T10:53:07;3.22;;;2.30;;
581;SDS011;277;50.074;8.436;2023-03-08T10:55:39;3.40;;;3.10;;
581;SDS011;277;50.074;8.436;2023-03-08T10:58:25;3.25;;;2.42;;
581;SDS011;277;50.074;8.436;2023-03-08T11:00:56;2.20;;;2.00;;
581;SDS011;277;50.074;8.436;2023-03-08T11:03:26;2.35;;;2.15;;
581;SDS011;277;50.074;8.436;2023-03-08T11:05:55;3.28;;;2.65;;
581;SDS011;277;50.074;8.436;2023-03-08T11:08:26;1.95;;;1.85;;
581;SDS011;277;50.074;8.436;2023-03-08T11:11:04;2.45;;;2.00;;
581;SDS011;277;50.074;8.436;2023-03-08T11:13:35;3.72;;;2.92;;
581;SDS011;277;50.074;8.436;2023-03-08T11:16:10;3.17;;;1.95;;
581;SDS011;277;50.074;8.436;2023-03-08T11:18:54;2.65;;;2.30;;
581;SDS011;277;50.074;8.436;2023-03-08T11:21:31;1.90;;;1.60;;
581;SDS011;277;50.074;8.436;2023-03-08T11:24:16;4.05;;;2.72;;
581;SDS011;277;50.074;8.436;2023-03-08T11:26:54;3.00;;;2.50;;
581;SDS011;277;50.074;8.436;2023-03-08T11:29:36;3.33;;;3.00;;
581;SDS011;277;50.074;8.436;2023-03-08T11:32:17;3.42;;;2.95;;
581;SDS011;277;50.074;8.436;2023-03-08T11:34:59;2.50;;;1.98;;
581;SDS011;277;50.074;8.436;2023-03-08T11:37:36;3.83;;;2.20;;
581;SDS011;277;50.074;8.436;2023-03-08T11:40:20;2.45;;;2.25;;
581;SDS011;277;50.074;8.436;2023-03-08T11:43:07;2.72;;;2.47;;
581;SDS011;277;50.074;8.436;2023-03-08T11:45:46;3.47;;;2.95;;
581;SDS011;277;50.074;8.436;2023-03-08T11:48:22;3.47;;;2.13;;
581;SDS011;277;50.074;8.436;2023-03-08T11:51:03;2.25;;;2.08;;
581;SDS011;277;50.074;8.436;2023-03-08T11:53:39;2.42;;;2.22;;
581;SDS011;277;50.074;8.436;2023-03-08T11:56:23;2.75;;;2.47;;
581;SDS011;277;50.074;8.436;2023-03-08T11:59:02;2.65;;;2.00;;
581;SDS011;277;50.074;8.436;2023-03-08T12:01:36;4.78;;;3.33;;
581;SDS011;277;50.074;8.436;2023-03-08T12:04:10;2.95;;;2.65;;
581;SDS011;277;50.074;8.436;2023-03-08T12:06:41;2.10;;;1.90;;
581;SDS011;277;50.074;8.436;2023-03-08T12:09:13;2.40;;;2.20;;
581;SDS011;277;50.074;8.436;2023-03-08T12:11:48;3.60;;;2.70;;
581;SDS011;277;50.074;8.436;2023-03-08T12:14:22;2.63;;;2.30;;
581;SDS011;277;50.074;8.436;2023-03-08T12:16:55;2.78;;;2.10;;
581;SDS011;277;50.074;8.436;2023-03-08T12:19:29;2.60;;;2.40;;
581;SDS011;277;50.074;8.436;2023-03-08T12:22:07;3.10;;;2.35;;
581;SDS011;277;50.074;8.436;2023-03-08T12:24:48;2.63;;;2.42;;
581;SDS011;277;50.074;8.436;2023-03-08T12:27:22;4.85;;;1.80;;
581;SDS011;277;50.074;8.436;2023-03-08T12:29:58;4.75;;;2.88;;
581;SDS011;277;50.074;8.436;2023-03-08T12:32:32;3.40;;;2.63;;
581;SDS011;277;50.074;8.436;2023-03-08T12:35:05;3.22;;;2.95;;
581;SDS011;277;50.074;8.436;2023-03-08T12:37:53;2.95;;;2.35;;
581;SDS011;277;50.074;8.436;2023-03-08T12:40:27;2.83;;;2.10;;
581;SDS011;277;50.074;8.436;2023-03-08T12:43:08;3.90;;;3.00;;
581;SDS011;277;50.074;8.436;2023-03-08T12:45:38;2.60;;;2.40;;
581;SDS011;277;50.074;8.436;2023-03-08T12:48:15;12.00;;;9.20;;
581;SDS011;277;50.074;8.436;2023-03-08T12:50:53;5.05;;;4.43;;
581;SDS011;277;50.074;8.436;2023-03-08T12:53:28;3.10;;;2.80;;
581;SDS011;277;50.074;8.436;2023-03-08T12:56:01;5.93;;;3.65;;
581;SDS011;277;50.074;8.436;2023-03-08T12:58:32;5.60;;;3.63;;
581;SDS011;277;50.074;8.436;2023-03-08T13:01:04;2.55;;;2.35;;
581;SDS011;277;50.074;8.436;2023-03-08T13:03:38;4.70;;;2.95;;
581;SDS011;277;50.074;8.436;2023-03-08T13:06:15;2.22;;;2.03;;
581;SDS011;277;50.074;8.436;2023-03-08T13:09:12;10.20;;;5.63;;
581;SDS011;277;50.074;8.436;2023-03-08T13:11:49;5.20;;;4.70;;
581;SDS011;277;50.074;8.436;2023-03-08T13:14:22;4.55;;;3.25;;
581;SDS011;277;50.074;8.436;2023-03-08T13:16:52;3.85;;;3.55;;
581;SDS011;277;50.074;8.436;2023-03-08T13:19:24;3.40;;;2.67;;
581;SDS011;277;50.074;8.436;2023-03-08T13:21:56;3.53;;;2.95;;
581;SDS011;277;50.074;8.436;2023-03-08T13:24:34;2.78;;;2.58;;
581;SDS011;277;50.074;8.436;2023-03-08T13:27:11;2.35;;;1.95;;
581;SDS011;277;50.074;8.436;2023-03-08T13:29:46;2.80;;;2.30;;
581;SDS011;277;50.074;8.436;2023-03-08T13:32:15;2.15;;;1.95;;
581;SDS011;277;50.074;8.436;2023-03-08T13:34:56;3.42;;;2.65;;
581;SDS011;277;50.074;8.436;2023-03-08T13:37:26;5.70;;;2.95;;
581;SDS011;277;50.074;8.436;2023-03-08T13:39:56;3.65;;;2.60;;
581;SDS011;277;50.074;8.436;2023-03-08T13:42:26;2.92;;;2.70;;
581;SDS011;277;50.074;8.436;2023-03-08T13:45:04;3.70;;;3.40;;
581;SDS011;277;50.074;8.436;2023-03-08T13:47:36;3.28;;;1.85;;
581;SDS011;277;50.074;8.436;2023-03-08T13:50:13;3.83;;;2.65;;
581;SDS011;277;50.074;8.436;2023-03-08T13:52:44;3.08;;;2.88;;
581;SDS011;277;50.074;8.436;2023-03-08T13:55:16;2.20;;;2.08;;
581;SDS011;277;50.074;8.436;2023-03-08T13:57:47;3.63;;;3.28;;
581;SDS011;277;50.074;8.436;2023-03-08T14:00:20;2.35;;;2.15;;
581;SDS011;277;50.074;8.436;2023-03-08T14:02:51;3.10;;;2.80;;
581;SDS011;277;50.074;8.436;2023-03-08T14:05:21;3.35;;;2.95;;
581;SDS011;277;50.074;8.436;2023-03-08T14:07:57;2.97;;;2.38;;
581;SDS011;277;50.074;8.436;2023-03-08T14:10:30;2.80;;;2.60;;
581;SDS011;277;50.074;8.436;2023-03-08T14:13:02;1.77;;;1.35;;
581;SDS011;277;50.074;8.436;2023-03-08T14:15:32;2.50;;;2.30;;
581;SDS011;277;50.074;8.436;2023-03-08T14:18:04;3.58;;;3.00;;
581;SDS011;277;50.074;8.436;2023-03-08T14:20:35;2.00;;;1.90;;
581;SDS011;277;50.074;8.436;2023-03-08T14:23:03;2.25;;;2.05;;
581;SDS011;277;50.074;8.436;2023-03-08T14:25:31;2.20;;;2.00;;
581;SDS011;277;50.074;8.436;2023-03-08T14:27:58;2.83;;;2.50;;
581;SDS011;277;50.074;8.436;2023-03-08T14:30:27;2.22;;;2.03;;
581;SDS011;277;50.074;8.436;2023-03-08T14:32:57;1.85;;;1.75;;
581;SDS011;277;50.074;8.436;2023-03-08T14:35:28;2.85;;;2.45;;
581;SDS011;277;50.074;8.436;2023-03-08T14:37:59;3.75;;;2.47;;
581;SDS011;277;50.074;8.436;2023-03-08T14:40:28;2.50;;;2.30;;
581;SDS011;277;50.074;8.436;2023-03-08T14:42:58;3.13;;;2.15;;
581;SDS011;277;50.074;8.436;2023-03-08T14:45:31;3.25;;;3.03;;
581;SDS011;277;50.074;8.436;2023-03-08T14:48:13;2.58;;;2.40;;
581;SDS011;277;50.074;8.436;2023-03-08T14:50:52;2.95;;;2.75;;
581;SDS011;277;50.074;8.436;2023-03-08T14:53:24;3.80;;;3.50;;
581;SDS011;277;50.074;8.436;2023-03-08T14:55:55;1.35;;;1.25;;
581;SDS011;277;50.074;8.436;2023-03-08T14:58:25;3.60;;;2.83;;
581;SDS011;277;50.074;8.436;2023-03-08T15:00:55;2.53;;;2.33;;
581;SDS011;277;50.074;8.436;2023-03-08T15:03:24;2.10;;;1.73;;
581;SDS011;277;50.074;8.436;2023-03-08T15:05:52;3.00;;;2.35;;
581;SDS011;277;50.074;8.436;2023-03-08T15:08:21;3.08;;;2.70;;
581;SDS011;277;50.074;8.436;2023-03-08T15:10:51;2.40;;;2.20;;
581;SDS011;277;50.074;8.436;2023-03-08T15:13:20;2.95;;;2.75;;
581;SDS011;277;50.074;8.436;2023-03-08T15:15:49;4.45;;;3.17;;
581;SDS011;277;50.074;8.436;2023-03-08T15:18:17;2.42;;;2.22;;
581;SDS011;277;50.074;8.436;2023-03-08T15:20:46;2.90;;;2.20;;
581;SDS011;277;50.074;8.436;2023-03-08T15:23:16;2.10;;;1.92;;
581;SDS011;277;50.074;8.436;2023-03-08T15:25:47;3.47;;;2.42;;
581;SDS011;277;50.074;8.436;2023-03-08T15:28:17;5.75;;;2.50;;
581;SDS011;277;50.074;8.436;2023-03-08T15:30:47;2.83;;;2.22;;
581;SDS011;277;50.074;8.436;2023-03-08T15:33:17;4.65;;;3.92;;
581;SDS011;277;50.074;8.436;2023-03-08T15:35:46;3.50;;;2.58;;
581;SDS011;277;50.074;8.436;2023-03-08T15:38:15;6.57;;;2.97;;
581;SDS011;277;50.074;8.436;2023-03-08T15:40:44;2.80;;;2.60;;
581;SDS011;277;50.074;8.436;2023-03-08T15:43:12;4.03;;;2.83;;
581;SDS011;277;50.074;8.436;2023-03-08T15:45:41;3.05;;;2.33;;
581;SDS011;277;50.074;8.436;2023-03-08T15:48:11;2.00;;;1.77;;
581;SDS011;277;50.074;8.436;2023-03-08T15:50:40;2.40;;;2.05;;
581;SDS011;277;50.074;8.436;2023-03-08T15:53:09;1.75;;;1.38;;
581;SDS011;277;50.074;8.436;2023-03-08T15:55:51;3.08;;;2.78;;
581;SDS011;277;50.074;8.436;2023-03-08T15:58:19;2.88;;;2.45;;
581;SDS011;277;50.074;8.436;2023-03-08T16:00:48;2.38;;;2.17;;
581;SDS011;277;50.074;8.436;2023-03-08T16:03:17;3.35;;;3.05;;
581;SDS011;277;50.074;8.436;2023-03-08T16:05:51;2.72;;;2.33;;